Аэропорт: Национальный аэропорт Минск. Минск

ICAO: UMMS

METAR:
2019-11-21 01:30:00
UMMS 210130Z 13006G09MPS 100V160 9999 BKN017 01/M00 Q1033 R88/190055 NOSIG
METAR:
2019-11-20 23:03:00
TAF UMMS 202303Z 2100/2124 11007G12MPS 5000 BR OVC004 TX03/2113Z TNM00/2101Z TEMPO 2100/2106 13009G14MPS 1200 FZDZ OVC003 FM210600 13007G12MPS 6000 BKN005 TEMPO 2106/2124 15010G15MPS 1200 RASN BKN003